sensor_id;sensor_type;location;lat;lon;timestamp;P1;durP1;ratioP1;P2;durP2;ratioP2
56794;SDS011;42678;59.400;18.410;2022-12-26T00:00:27;4.70;;;2.65;;
56794;SDS011;42678;59.400;18.410;2022-12-26T00:02:53;6.85;;;2.88;;
56794;SDS011;42678;59.400;18.410;2022-12-26T00:05:18;5.85;;;2.65;;
56794;SDS011;42678;59.400;18.410;2022-12-26T00:07:43;3.28;;;1.63;;
56794;SDS011;42678;59.400;18.410;2022-12-26T00:10:09;5.18;;;2.50;;
56794;SDS011;42678;59.400;18.410;2022-12-26T00:12:35;2.90;;;1.75;;
56794;SDS011;42678;59.400;18.410;2022-12-26T00:15:01;8.02;;;3.30;;
56794;SDS011;42678;59.400;18.410;2022-12-26T00:17:27;3.03;;;1.77;;
56794;SDS011;42678;59.400;18.410;2022-12-26T00:19:52;5.43;;;2.90;;
56794;SDS011;42678;59.400;18.410;2022-12-26T00:22:18;3.35;;;1.45;;
56794;SDS011;42678;59.400;18.410;2022-12-26T00:24:43;3.88;;;1.85;;
56794;SDS011;42678;59.400;18.410;2022-12-26T00:27:09;7.82;;;4.00;;
56794;SDS011;42678;59.400;18.410;2022-12-26T00:29:34;2.85;;;1.67;;
56794;SDS011;42678;59.400;18.410;2022-12-26T00:31:59;6.30;;;3.53;;
56794;SDS011;42678;59.400;18.410;2022-12-26T00:34:25;5.05;;;2.28;;
56794;SDS011;42678;59.400;18.410;2022-12-26T00:36:50;8.25;;;3.75;;
56794;SDS011;42678;59.400;18.410;2022-12-26T00:39:16;4.20;;;1.40;;
56794;SDS011;42678;59.400;18.410;2022-12-26T00:41:43;4.43;;;1.88;;
56794;SDS011;42678;59.400;18.410;2022-12-26T00:44:10;3.20;;;2.05;;
56794;SDS011;42678;59.400;18.410;2022-12-26T00:46:35;3.70;;;2.17;;
56794;SDS011;42678;59.400;18.410;2022-12-26T00:49:00;4.35;;;1.98;;
56794;SDS011;42678;59.400;18.410;2022-12-26T00:51:26;5.93;;;2.33;;
56794;SDS011;42678;59.400;18.410;2022-12-26T00:53:52;5.30;;;2.78;;
56794;SDS011;42678;59.400;18.410;2022-12-26T00:56:17;6.90;;;2.22;;
56794;SDS011;42678;59.400;18.410;2022-12-26T00:58:43;6.57;;;3.30;;
56794;SDS011;42678;59.400;18.410;2022-12-26T01:01:20;3.63;;;1.92;;
56794;SDS011;42678;59.400;18.410;2022-12-26T01:03:47;8.00;;;4.35;;
56794;SDS011;42678;59.400;18.410;2022-12-26T01:06:13;5.10;;;2.67;;
56794;SDS011;42678;59.400;18.410;2022-12-26T01:08:38;7.78;;;2.67;;
56794;SDS011;42678;59.400;18.410;2022-12-26T01:11:05;12.50;;;4.32;;
56794;SDS011;42678;59.400;18.410;2022-12-26T01:13:31;9.13;;;1.92;;
56794;SDS011;42678;59.400;18.410;2022-12-26T01:15:58;8.70;;;4.22;;
56794;SDS011;42678;59.400;18.410;2022-12-26T01:18:23;9.90;;;4.97;;
56794;SDS011;42678;59.400;18.410;2022-12-26T01:20:49;7.78;;;3.80;;
56794;SDS011;42678;59.400;18.410;2022-12-26T01:23:15;6.30;;;2.47;;
56794;SDS011;42678;59.400;18.410;2022-12-26T01:25:42;9.82;;;3.83;;
56794;SDS011;42678;59.400;18.410;2022-12-26T01:28:07;10.05;;;4.80;;
56794;SDS011;42678;59.400;18.410;2022-12-26T01:30:32;8.32;;;3.00;;
56794;SDS011;42678;59.400;18.410;2022-12-26T01:32:58;5.78;;;2.88;;
56794;SDS011;42678;59.400;18.410;2022-12-26T01:35:23;8.57;;;3.30;;
56794;SDS011;42678;59.400;18.410;2022-12-26T01:37:49;5.05;;;2.60;;
56794;SDS011;42678;59.400;18.410;2022-12-26T01:40:14;3.70;;;2.45;;
56794;SDS011;42678;59.400;18.410;2022-12-26T01:42:40;7.47;;;2.53;;
56794;SDS011;42678;59.400;18.410;2022-12-26T01:45:15;6.22;;;2.65;;
56794;SDS011;42678;59.400;18.410;2022-12-26T01:47:44;11.00;;;4.85;;
56794;SDS011;42678;59.400;18.410;2022-12-26T01:52:55;6.45;;;3.25;;
56794;SDS011;42678;59.400;18.410;2022-12-26T01:55:21;7.10;;;2.97;;
56794;SDS011;42678;59.400;18.410;2022-12-26T01:57:49;8.68;;;3.28;;
56794;SDS011;42678;59.400;18.410;2022-12-26T02:00:16;12.45;;;5.50;;
56794;SDS011;42678;59.400;18.410;2022-12-26T02:02:42;11.90;;;4.80;;
56794;SDS011;42678;59.400;18.410;2022-12-26T02:05:26;12.48;;;3.13;;
56794;SDS011;42678;59.400;18.410;2022-12-26T02:08:00;6.93;;;3.78;;
56794;SDS011;42678;59.400;18.410;2022-12-26T02:10:28;12.82;;;6.13;;
56794;SDS011;42678;59.400;18.410;2022-12-26T02:12:56;7.80;;;3.10;;
56794;SDS011;42678;59.400;18.410;2022-12-26T02:15:22;8.07;;;4.05;;
56794;SDS011;42678;59.400;18.410;2022-12-26T02:17:47;11.02;;;4.90;;
56794;SDS011;42678;59.400;18.410;2022-12-26T02:20:23;12.70;;;5.90;;
56794;SDS011;42678;59.400;18.410;2022-12-26T02:35:22;4.15;;;1.95;;
56794;SDS011;42678;59.400;18.410;2022-12-26T02:40:22;6.30;;;3.28;;
56794;SDS011;42678;59.400;18.410;2022-12-26T02:45:49;4.50;;;3.05;;
56794;SDS011;42678;59.400;18.410;2022-12-26T02:48:56;3.13;;;1.90;;
56794;SDS011;42678;59.400;18.410;2022-12-26T02:51:57;6.15;;;2.65;;
56794;SDS011;42678;59.400;18.410;2022-12-26T02:57:24;2.78;;;1.58;;
56794;SDS011;42678;59.400;18.410;2022-12-26T03:00:15;4.13;;;2.03;;
56794;SDS011;42678;59.400;18.410;2022-12-26T03:03:12;3.47;;;2.25;;
56794;SDS011;42678;59.400;18.410;2022-12-26T03:06:02;7.70;;;2.45;;
56794;SDS011;42678;59.400;18.410;2022-12-26T03:11:39;5.05;;;2.95;;
56794;SDS011;42678;59.400;18.410;2022-12-26T03:14:27;4.68;;;2.50;;
56794;SDS011;42678;59.400;18.410;2022-12-26T03:16:58;3.42;;;1.73;;
56794;SDS011;42678;59.400;18.410;2022-12-26T03:19:44;3.22;;;1.75;;
56794;SDS011;42678;59.400;18.410;2022-12-26T03:25:41;10.15;;;5.43;;
56794;SDS011;42678;59.400;18.410;2022-12-26T03:28:27;9.00;;;4.72;;
56794;SDS011;42678;59.400;18.410;2022-12-26T03:30:52;8.38;;;4.95;;
56794;SDS011;42678;59.400;18.410;2022-12-26T03:33:24;14.43;;;4.07;;
56794;SDS011;42678;59.400;18.410;2022-12-26T03:39:00;8.73;;;4.80;;
56794;SDS011;42678;59.400;18.410;2022-12-26T03:44:36;13.90;;;6.65;;
56794;SDS011;42678;59.400;18.410;2022-12-26T03:50:34;11.90;;;4.95;;
56794;SDS011;42678;59.400;18.410;2022-12-26T03:53:31;12.95;;;3.47;;
56794;SDS011;42678;59.400;18.410;2022-12-26T04:01:44;16.70;;;3.95;;
56794;SDS011;42678;59.400;18.410;2022-12-26T04:07:15;9.10;;;3.33;;
56794;SDS011;42678;59.400;18.410;2022-12-26T04:10:07;8.40;;;3.72;;
56794;SDS011;42678;59.400;18.410;2022-12-26T04:12:52;7.13;;;4.03;;
56794;SDS011;42678;59.400;18.410;2022-12-26T04:16:18;12.35;;;6.60;;
56794;SDS011;42678;59.400;18.410;2022-12-26T04:18:48;7.20;;;2.38;;
56794;SDS011;42678;59.400;18.410;2022-12-26T04:21:34;15.60;;;7.25;;
56794;SDS011;42678;59.400;18.410;2022-12-26T04:24:22;10.75;;;5.07;;
56794;SDS011;42678;59.400;18.410;2022-12-26T04:27:07;19.10;;;8.02;;
56794;SDS011;42678;59.400;18.410;2022-12-26T04:29:52;11.90;;;5.00;;
56794;SDS011;42678;59.400;18.410;2022-12-26T04:32:38;15.82;;;8.65;;
56794;SDS011;42678;59.400;18.410;2022-12-26T04:38:20;12.35;;;3.63;;
56794;SDS011;42678;59.400;18.410;2022-12-26T04:41:05;3.38;;;2.47;;
56794;SDS011;42678;59.400;18.410;2022-12-26T04:43:50;8.00;;;4.43;;
56794;SDS011;42678;59.400;18.410;2022-12-26T04:46:48;7.30;;;3.78;;
56794;SDS011;42678;59.400;18.410;2022-12-26T04:49:15;6.88;;;3.63;;
56794;SDS011;42678;59.400;18.410;2022-12-26T04:51:59;9.45;;;3.97;;
56794;SDS011;42678;59.400;18.410;2022-12-26T04:54:25;7.32;;;3.13;;
56794;SDS011;42678;59.400;18.410;2022-12-26T04:56:51;12.10;;;4.75;;
56794;SDS011;42678;59.400;18.410;2022-12-26T04:59:17;9.50;;;3.72;;
56794;SDS011;42678;59.400;18.410;2022-12-26T05:01:43;8.82;;;3.08;;
56794;SDS011;42678;59.400;18.410;2022-12-26T05:04:27;10.70;;;2.58;;
56794;SDS011;42678;59.400;18.410;2022-12-26T05:07:15;5.35;;;2.63;;
56794;SDS011;42678;59.400;18.410;2022-12-26T05:09:59;5.43;;;2.60;;
56794;SDS011;42678;59.400;18.410;2022-12-26T05:12:24;3.05;;;1.52;;
56794;SDS011;42678;59.400;18.410;2022-12-26T05:14:50;13.10;;;6.93;;
56794;SDS011;42678;59.400;18.410;2022-12-26T05:17:15;3.10;;;1.33;;
56794;SDS011;42678;59.400;18.410;2022-12-26T05:19:59;4.22;;;2.17;;
56794;SDS011;42678;59.400;18.410;2022-12-26T05:22:43;8.77;;;2.08;;
56794;SDS011;42678;59.400;18.410;2022-12-26T05:25:29;9.80;;;3.55;;
56794;SDS011;42678;59.400;18.410;2022-12-26T05:28:15;4.15;;;1.95;;
56794;SDS011;42678;59.400;18.410;2022-12-26T05:33:26;4.00;;;2.05;;
56794;SDS011;42678;59.400;18.410;2022-12-26T05:36:10;6.27;;;3.93;;
56794;SDS011;42678;59.400;18.410;2022-12-26T05:38:36;3.65;;;1.80;;
56794;SDS011;42678;59.400;18.410;2022-12-26T05:41:02;6.05;;;2.47;;
56794;SDS011;42678;59.400;18.410;2022-12-26T05:43:27;5.88;;;3.10;;
56794;SDS011;42678;59.400;18.410;2022-12-26T05:45:53;8.82;;;5.10;;
56794;SDS011;42678;59.400;18.410;2022-12-26T05:48:18;5.30;;;2.35;;
56794;SDS011;42678;59.400;18.410;2022-12-26T05:50:44;6.45;;;2.70;;
56794;SDS011;42678;59.400;18.410;2022-12-26T05:53:09;5.85;;;2.85;;
56794;SDS011;42678;59.400;18.410;2022-12-26T05:55:35;9.70;;;5.80;;
56794;SDS011;42678;59.400;18.410;2022-12-26T05:58:00;9.20;;;3.90;;
56794;SDS011;42678;59.400;18.410;2022-12-26T06:00:26;5.53;;;3.30;;
56794;SDS011;42678;59.400;18.410;2022-12-26T06:02:53;13.73;;;8.02;;
56794;SDS011;42678;59.400;18.410;2022-12-26T06:05:18;10.15;;;5.28;;
56794;SDS011;42678;59.400;18.410;2022-12-26T06:07:44;9.70;;;5.63;;
56794;SDS011;42678;59.400;18.410;2022-12-26T06:10:09;6.85;;;3.42;;
56794;SDS011;42678;59.400;18.410;2022-12-26T06:12:35;2.35;;;1.52;;
56794;SDS011;42678;59.400;18.410;2022-12-26T06:15:00;6.55;;;2.90;;
56794;SDS011;42678;59.400;18.410;2022-12-26T06:17:26;3.80;;;2.42;;
56794;SDS011;42678;59.400;18.410;2022-12-26T06:19:51;9.77;;;4.68;;
56794;SDS011;42678;59.400;18.410;2022-12-26T06:22:18;8.55;;;4.07;;
56794;SDS011;42678;59.400;18.410;2022-12-26T06:24:43;7.60;;;3.10;;
56794;SDS011;42678;59.400;18.410;2022-12-26T06:27:09;9.95;;;5.00;;
56794;SDS011;42678;59.400;18.410;2022-12-26T06:29:35;8.40;;;4.47;;
56794;SDS011;42678;59.400;18.410;2022-12-26T06:32:00;7.00;;;2.67;;
56794;SDS011;42678;59.400;18.410;2022-12-26T06:34:26;8.50;;;3.38;;
56794;SDS011;42678;59.400;18.410;2022-12-26T06:36:54;4.82;;;2.47;;
56794;SDS011;42678;59.400;18.410;2022-12-26T06:39:20;6.05;;;2.95;;
56794;SDS011;42678;59.400;18.410;2022-12-26T06:41:46;5.40;;;2.58;;
56794;SDS011;42678;59.400;18.410;2022-12-26T06:44:11;7.50;;;3.17;;
56794;SDS011;42678;59.400;18.410;2022-12-26T06:46:37;9.02;;;4.03;;
56794;SDS011;42678;59.400;18.410;2022-12-26T06:49:03;4.65;;;2.60;;
56794;SDS011;42678;59.400;18.410;2022-12-26T06:51:30;7.50;;;4.32;;
56794;SDS011;42678;59.400;18.410;2022-12-26T06:53:57;6.03;;;3.45;;
56794;SDS011;42678;59.400;18.410;2022-12-26T06:56:24;10.15;;;3.30;;
56794;SDS011;42678;59.400;18.410;2022-12-26T06:58:54;3.53;;;1.65;;
56794;SDS011;42678;59.400;18.410;2022-12-26T07:01:20;7.75;;;3.55;;
56794;SDS011;42678;59.400;18.410;2022-12-26T07:03:47;9.45;;;4.88;;
56794;SDS011;42678;59.400;18.410;2022-12-26T07:06:26;10.80;;;2.83;;
56794;SDS011;42678;59.400;18.410;2022-12-26T07:08:53;7.95;;;3.78;;
56794;SDS011;42678;59.400;18.410;2022-12-26T07:11:20;9.75;;;4.32;;
56794;SDS011;42678;59.400;18.410;2022-12-26T07:13:46;9.27;;;3.17;;
56794;SDS011;42678;59.400;18.410;2022-12-26T07:16:12;4.25;;;2.50;;
56794;SDS011;42678;59.400;18.410;2022-12-26T07:18:37;5.05;;;2.83;;
56794;SDS011;42678;59.400;18.410;2022-12-26T07:21:04;8.40;;;4.60;;
56794;SDS011;42678;59.400;18.410;2022-12-26T07:23:29;8.85;;;4.75;;
56794;SDS011;42678;59.400;18.410;2022-12-26T07:25:55;7.28;;;3.45;;
56794;SDS011;42678;59.400;18.410;2022-12-26T07:28:22;10.00;;;3.22;;
56794;SDS011;42678;59.400;18.410;2022-12-26T07:30:48;6.03;;;3.80;;
56794;SDS011;42678;59.400;18.410;2022-12-26T07:33:14;6.40;;;2.45;;
56794;SDS011;42678;59.400;18.410;2022-12-26T07:35:39;4.10;;;2.10;;
56794;SDS011;42678;59.400;18.410;2022-12-26T07:38:05;4.97;;;2.30;;
56794;SDS011;42678;59.400;18.410;2022-12-26T07:40:31;6.28;;;2.60;;
56794;SDS011;42678;59.400;18.410;2022-12-26T07:42:56;6.30;;;2.72;;
56794;SDS011;42678;59.400;18.410;2022-12-26T07:45:21;3.65;;;2.22;;
56794;SDS011;42678;59.400;18.410;2022-12-26T07:47:47;5.45;;;2.63;;
56794;SDS011;42678;59.400;18.410;2022-12-26T07:50:12;4.00;;;2.03;;
56794;SDS011;42678;59.400;18.410;2022-12-26T07:52:38;4.63;;;1.88;;
56794;SDS011;42678;59.400;18.410;2022-12-26T07:55:03;5.32;;;2.15;;
56794;SDS011;42678;59.400;18.410;2022-12-26T07:57:29;7.05;;;3.85;;
56794;SDS011;42678;59.400;18.410;2022-12-26T07:59:54;7.43;;;3.10;;
56794;SDS011;42678;59.400;18.410;2022-12-26T08:02:20;5.38;;;2.35;;
56794;SDS011;42678;59.400;18.410;2022-12-26T08:04:45;6.35;;;2.13;;
56794;SDS011;42678;59.400;18.410;2022-12-26T08:07:11;9.25;;;3.70;;
56794;SDS011;42678;59.400;18.410;2022-12-26T08:09:36;4.72;;;2.05;;
56794;SDS011;42678;59.400;18.410;2022-12-26T08:12:07;7.20;;;3.13;;
56794;SDS011;42678;59.400;18.410;2022-12-26T08:14:32;10.23;;;3.92;;
56794;SDS011;42678;59.400;18.410;2022-12-26T08:16:57;3.67;;;1.90;;
56794;SDS011;42678;59.400;18.410;2022-12-26T08:19:23;3.53;;;1.85;;
56794;SDS011;42678;59.400;18.410;2022-12-26T08:21:48;3.50;;;1.85;;
56794;SDS011;42678;59.400;18.410;2022-12-26T08:24:14;2.90;;;1.80;;
56794;SDS011;42678;59.400;18.410;2022-12-26T08:26:40;7.80;;;3.15;;
56794;SDS011;42678;59.400;18.410;2022-12-26T08:29:05;6.25;;;2.72;;
56794;SDS011;42678;59.400;18.410;2022-12-26T08:31:30;9.32;;;4.68;;
56794;SDS011;42678;59.400;18.410;2022-12-26T08:33:56;10.82;;;3.38;;
56794;SDS011;42678;59.400;18.410;2022-12-26T08:36:21;9.27;;;3.70;;
56794;SDS011;42678;59.400;18.410;2022-12-26T08:38:47;9.77;;;4.32;;
56794;SDS011;42678;59.400;18.410;2022-12-26T08:41:13;5.00;;;2.63;;
56794;SDS011;42678;59.400;18.410;2022-12-26T08:43:38;8.65;;;2.28;;
56794;SDS011;42678;59.400;18.410;2022-12-26T08:48:29;13.13;;;5.93;;
56794;SDS011;42678;59.400;18.410;2022-12-26T08:50:56;7.75;;;4.32;;
56794;SDS011;42678;59.400;18.410;2022-12-26T08:53:21;13.50;;;6.13;;
56794;SDS011;42678;59.400;18.410;2022-12-26T08:55:47;8.77;;;3.47;;
56794;SDS011;42678;59.400;18.410;2022-12-26T08:58:12;15.18;;;4.15;;
56794;SDS011;42678;59.400;18.410;2022-12-26T09:00:37;10.43;;;3.38;;
56794;SDS011;42678;59.400;18.410;2022-12-26T09:03:03;7.90;;;3.20;;
56794;SDS011;42678;59.400;18.410;2022-12-26T09:05:29;8.80;;;4.63;;
56794;SDS011;42678;59.400;18.410;2022-12-26T09:07:55;1.35;;;1.02;;
56794;SDS011;42678;59.400;18.410;2022-12-26T09:10:20;2.25;;;1.42;;
56794;SDS011;42678;59.400;18.410;2022-12-26T09:12:47;4.00;;;1.20;;
56794;SDS011;42678;59.400;18.410;2022-12-26T09:15:12;8.38;;;4.07;;
56794;SDS011;42678;59.400;18.410;2022-12-26T09:17:37;2.03;;;1.38;;
56794;SDS011;42678;59.400;18.410;2022-12-26T09:20:03;4.38;;;2.08;;
56794;SDS011;42678;59.400;18.410;2022-12-26T09:22:29;10.30;;;3.13;;
56794;SDS011;42678;59.400;18.410;2022-12-26T09:25:12;9.35;;;4.22;;
56794;SDS011;42678;59.400;18.410;2022-12-26T09:27:38;9.50;;;3.78;;
56794;SDS011;42678;59.400;18.410;2022-12-26T09:30:03;6.80;;;3.47;;
56794;SDS011;42678;59.400;18.410;2022-12-26T09:32:33;5.63;;;2.08;;
56794;SDS011;42678;59.400;18.410;2022-12-26T09:34:59;9.60;;;4.00;;
56794;SDS011;42678;59.400;18.410;2022-12-26T09:37:24;5.43;;;2.25;;
56794;SDS011;42678;59.400;18.410;2022-12-26T09:39:49;11.18;;;5.18;;
56794;SDS011;42678;59.400;18.410;2022-12-26T09:45:18;8.45;;;2.80;;
56794;SDS011;42678;59.400;18.410;2022-12-26T09:47:50;2.42;;;1.65;;
56794;SDS011;42678;59.400;18.410;2022-12-26T09:52:48;6.65;;;3.45;;
56794;SDS011;42678;59.400;18.410;2022-12-26T09:55:57;15.25;;;6.60;;
56794;SDS011;42678;59.400;18.410;2022-12-26T09:58:46;3.97;;;2.53;;
56794;SDS011;42678;59.400;18.410;2022-12-26T10:00:54;5.05;;;3.40;;
56794;SDS011;42678;59.400;18.410;2022-12-26T10:03:21;4.85;;;2.72;;
56794;SDS011;42678;59.400;18.410;2022-12-26T10:08:57;5.70;;;2.35;;
56794;SDS011;42678;59.400;18.410;2022-12-26T10:11:31;7.95;;;3.50;;
56794;SDS011;42678;59.400;18.410;2022-12-26T10:14:03;16.35;;;7.40;;
56794;SDS011;42678;59.400;18.410;2022-12-26T10:24:32;21.08;;;7.35;;
56794;SDS011;42678;59.400;18.410;2022-12-26T10:27:00;20.92;;;8.27;;
56794;SDS011;42678;59.400;18.410;2022-12-26T10:29:32;22.05;;;9.95;;
56794;SDS011;42678;59.400;18.410;2022-12-26T10:34:40;19.80;;;8.30;;
56794;SDS011;42678;59.400;18.410;2022-12-26T10:39:39;16.00;;;8.50;;
56794;SDS011;42678;59.400;18.410;2022-12-26T10:42:49;20.75;;;9.23;;
56794;SDS011;42678;59.400;18.410;2022-12-26T10:44:54;25.42;;;12.05;;
56794;SDS011;42678;59.400;18.410;2022-12-26T10:47:24;26.35;;;9.77;;
56794;SDS011;42678;59.400;18.410;2022-12-26T10:49:50;8.50;;;3.65;;
56794;SDS011;42678;59.400;18.410;2022-12-26T10:52:17;25.17;;;12.13;;
56794;SDS011;42678;59.400;18.410;2022-12-26T10:54:44;25.70;;;11.27;;
56794;SDS011;42678;59.400;18.410;2022-12-26T10:57:10;26.65;;;13.13;;
56794;SDS011;42678;59.400;18.410;2022-12-26T10:59:38;9.80;;;4.53;;
56794;SDS011;42678;59.400;18.410;2022-12-26T11:02:12;11.60;;;5.15;;
56794;SDS011;42678;59.400;18.410;2022-12-26T11:04:38;16.83;;;9.13;;
56794;SDS011;42678;59.400;18.410;2022-12-26T11:07:07;25.02;;;12.35;;
56794;SDS011;42678;59.400;18.410;2022-12-26T11:12:02;8.90;;;3.78;;
56794;SDS011;42678;59.400;18.410;2022-12-26T11:14:40;20.67;;;8.75;;
56794;SDS011;42678;59.400;18.410;2022-12-26T11:17:07;9.68;;;5.15;;
56794;SDS011;42678;59.400;18.410;2022-12-26T11:19:36;26.65;;;12.88;;
56794;SDS011;42678;59.400;18.410;2022-12-26T11:24:43;23.52;;;10.57;;
56794;SDS011;42678;59.400;18.410;2022-12-26T11:27:18;25.20;;;12.50;;
56794;SDS011;42678;59.400;18.410;2022-12-26T11:29:44;35.78;;;13.75;;
56794;SDS011;42678;59.400;18.410;2022-12-26T11:32:14;20.90;;;7.82;;
56794;SDS011;42678;59.400;18.410;2022-12-26T11:34:43;19.35;;;9.85;;
56794;SDS011;42678;59.400;18.410;2022-12-26T11:37:25;20.67;;;11.07;;
56794;SDS011;42678;59.400;18.410;2022-12-26T11:39:51;17.65;;;9.13;;
56794;SDS011;42678;59.400;18.410;2022-12-26T11:42:19;23.73;;;10.38;;
56794;SDS011;42678;59.400;18.410;2022-12-26T11:44:44;25.02;;;11.20;;
56794;SDS011;42678;59.400;18.410;2022-12-26T11:47:11;25.25;;;10.50;;
56794;SDS011;42678;59.400;18.410;2022-12-26T11:54:50;16.17;;;8.23;;
56794;SDS011;42678;59.400;18.410;2022-12-26T11:57:20;18.48;;;9.52;;
56794;SDS011;42678;59.400;18.410;2022-12-26T11:59:46;21.13;;;10.35;;
56794;SDS011;42678;59.400;18.410;2022-12-26T12:02:16;8.68;;;4.22;;
56794;SDS011;42678;59.400;18.410;2022-12-26T12:04:42;19.60;;;8.75;;
56794;SDS011;42678;59.400;18.410;2022-12-26T12:07:52;15.50;;;7.35;;
56794;SDS011;42678;59.400;18.410;2022-12-26T12:10:40;13.35;;;6.75;;
56794;SDS011;42678;59.400;18.410;2022-12-26T12:12:51;8.85;;;3.50;;
56794;SDS011;42678;59.400;18.410;2022-12-26T12:15:35;12.32;;;7.47;;
56794;SDS011;42678;59.400;18.410;2022-12-26T12:18:05;14.88;;;8.98;;
56794;SDS011;42678;59.400;18.410;2022-12-26T12:20:42;18.95;;;9.95;;
56794;SDS011;42678;59.400;18.410;2022-12-26T12:23:38;12.25;;;5.05;;
56794;SDS011;42678;59.400;18.410;2022-12-26T12:31:02;17.05;;;9.73;;
56794;SDS011;42678;59.400;18.410;2022-12-26T12:33:38;17.80;;;8.02;;
56794;SDS011;42678;59.400;18.410;2022-12-26T12:38:57;18.60;;;6.65;;
56794;SDS011;42678;59.400;18.410;2022-12-26T12:49:35;17.33;;;8.13;;
56794;SDS011;42678;59.400;18.410;2022-12-26T13:03:04;24.48;;;11.70;;
56794;SDS011;42678;59.400;18.410;2022-12-26T13:05:40;26.70;;;10.50;;
56794;SDS011;42678;59.400;18.410;2022-12-26T13:08:30;14.50;;;7.15;;
56794;SDS011;42678;59.400;18.410;2022-12-26T13:11:00;10.82;;;6.32;;
56794;SDS011;42678;59.400;18.410;2022-12-26T13:13:37;12.32;;;6.95;;
56794;SDS011;42678;59.400;18.410;2022-12-26T13:16:15;19.73;;;9.90;;
56794;SDS011;42678;59.400;18.410;2022-12-26T13:18:49;4.82;;;2.25;;
56794;SDS011;42678;59.400;18.410;2022-12-26T13:21:15;13.50;;;6.35;;
56794;SDS011;42678;59.400;18.410;2022-12-26T13:23:48;17.60;;;9.30;;
56794;SDS011;42678;59.400;18.410;2022-12-26T13:26:36;21.63;;;8.77;;
56794;SDS011;42678;59.400;18.410;2022-12-26T13:29:06;11.07;;;7.32;;
56794;SDS011;42678;59.400;18.410;2022-12-26T13:31:35;18.58;;;9.30;;
56794;SDS011;42678;59.400;18.410;2022-12-26T13:34:01;18.75;;;8.88;;
56794;SDS011;42678;59.400;18.410;2022-12-26T13:36:37;4.00;;;2.97;;
56794;SDS011;42678;59.400;18.410;2022-12-26T13:41:29;6.28;;;3.72;;
56794;SDS011;42678;59.400;18.410;2022-12-26T13:51:50;17.52;;;8.40;;
56794;SDS011;42678;59.400;18.410;2022-12-26T13:54:16;14.48;;;7.68;;
56794;SDS011;42678;59.400;18.410;2022-12-26T13:59:22;14.55;;;8.38;;
56794;SDS011;42678;59.400;18.410;2022-12-26T14:01:56;8.27;;;5.05;;
56794;SDS011;42678;59.400;18.410;2022-12-26T14:07:14;18.08;;;7.18;;
56794;SDS011;42678;59.400;18.410;2022-12-26T14:09:52;13.98;;;7.13;;
56794;SDS011;42678;59.400;18.410;2022-12-26T14:14:50;21.50;;;9.90;;
56794;SDS011;42678;59.400;18.410;2022-12-26T14:35:17;15.65;;;8.32;;
56794;SDS011;42678;59.400;18.410;2022-12-26T14:40:23;15.77;;;8.82;;
56794;SDS011;42678;59.400;18.410;2022-12-26T14:48:02;14.18;;;8.20;;
56794;SDS011;42678;59.400;18.410;2022-12-26T14:55:50;6.57;;;3.72;;
56794;SDS011;42678;59.400;18.410;2022-12-26T14:58:28;17.30;;;11.20;;
56794;SDS011;42678;59.400;18.410;2022-12-26T15:00:55;16.30;;;8.80;;
56794;SDS011;42678;59.400;18.410;2022-12-26T15:05:49;21.38;;;12.30;;
56794;SDS011;42678;59.400;18.410;2022-12-26T15:22:19;26.13;;;12.82;;
56794;SDS011;42678;59.400;18.410;2022-12-26T15:37:01;26.70;;;16.88;;
56794;SDS011;42678;59.400;18.410;2022-12-26T15:39:35;35.03;;;19.10;;
56794;SDS011;42678;59.400;18.410;2022-12-26T15:45:06;27.88;;;15.98;;
56794;SDS011;42678;59.400;18.410;2022-12-26T15:47:36;33.50;;;20.45;;
56794;SDS011;42678;59.400;18.410;2022-12-26T15:55:25;27.95;;;17.77;;
56794;SDS011;42678;59.400;18.410;2022-12-26T16:00:30;35.83;;;21.33;;
56794;SDS011;42678;59.400;18.410;2022-12-26T16:05:36;30.98;;;16.60;;
56794;SDS011;42678;59.400;18.410;2022-12-26T16:10:32;34.30;;;20.00;;
56794;SDS011;42678;59.400;18.410;2022-12-26T16:15:30;38.80;;;19.88;;
56794;SDS011;42678;59.400;18.410;2022-12-26T16:18:15;35.50;;;19.40;;
56794;SDS011;42678;59.400;18.410;2022-12-26T16:20:41;35.00;;;20.20;;
56794;SDS011;42678;59.400;18.410;2022-12-26T16:23:27;27.80;;;15.25;;
56794;SDS011;42678;59.400;18.410;2022-12-26T16:25:54;32.05;;;19.15;;
56794;SDS011;42678;59.400;18.410;2022-12-26T16:28:22;25.33;;;13.70;;
56794;SDS011;42678;59.400;18.410;2022-12-26T16:30:48;21.10;;;11.80;;
56794;SDS011;42678;59.400;18.410;2022-12-26T16:33:14;28.63;;;18.42;;
56794;SDS011;42678;59.400;18.410;2022-12-26T16:35:40;25.42;;;15.73;;
56794;SDS011;42678;59.400;18.410;2022-12-26T16:38:07;30.63;;;18.08;;
56794;SDS011;42678;59.400;18.410;2022-12-26T16:43:06;32.88;;;17.77;;
56794;SDS011;42678;59.400;18.410;2022-12-26T16:45:50;31.02;;;20.38;;
56794;SDS011;42678;59.400;18.410;2022-12-26T16:48:17;40.53;;;21.27;;
56794;SDS011;42678;59.400;18.410;2022-12-26T16:50:48;29.92;;;15.55;;
56794;SDS011;42678;59.400;18.410;2022-12-26T16:53:18;27.50;;;14.25;;
56794;SDS011;42678;59.400;18.410;2022-12-26T16:58:14;29.05;;;14.50;;
56794;SDS011;42678;59.400;18.410;2022-12-26T17:00:45;34.13;;;20.48;;
56794;SDS011;42678;59.400;18.410;2022-12-26T17:03:14;32.35;;;17.98;;
56794;SDS011;42678;59.400;18.410;2022-12-26T17:05:44;37.50;;;21.02;;
56794;SDS011;42678;59.400;18.410;2022-12-26T17:08:11;20.52;;;11.40;;
56794;SDS011;42678;59.400;18.410;2022-12-26T17:10:37;31.38;;;16.13;;
56794;SDS011;42678;59.400;18.410;2022-12-26T17:13:03;32.10;;;14.98;;
56794;SDS011;42678;59.400;18.410;2022-12-26T17:15:31;31.95;;;19.92;;
56794;SDS011;42678;59.400;18.410;2022-12-26T17:17:58;21.77;;;12.40;;
56794;SDS011;42678;59.400;18.410;2022-12-26T17:22:51;31.30;;;15.85;;
56794;SDS011;42678;59.400;18.410;2022-12-26T17:27:44;32.85;;;15.93;;
56794;SDS011;42678;59.400;18.410;2022-12-26T17:30:26;37.72;;;18.88;;
56794;SDS011;42678;59.400;18.410;2022-12-26T17:32:52;37.17;;;20.63;;
56794;SDS011;42678;59.400;18.410;2022-12-26T17:35:19;22.85;;;11.98;;
56794;SDS011;42678;59.400;18.410;2022-12-26T17:37:49;34.92;;;16.75;;
56794;SDS011;42678;59.400;18.410;2022-12-26T17:42:45;28.27;;;14.32;;
56794;SDS011;42678;59.400;18.410;2022-12-26T17:45:16;33.08;;;17.02;;
56794;SDS011;42678;59.400;18.410;2022-12-26T17:47:42;23.63;;;10.85;;
56794;SDS011;42678;59.400;18.410;2022-12-26T17:50:08;32.60;;;15.82;;
56794;SDS011;42678;59.400;18.410;2022-12-26T17:52:33;33.20;;;17.30;;
56794;SDS011;42678;59.400;18.410;2022-12-26T17:54:59;23.70;;;11.30;;
56794;SDS011;42678;59.400;18.410;2022-12-26T17:57:26;45.10;;;22.98;;
56794;SDS011;42678;59.400;18.410;2022-12-26T17:59:52;36.00;;;19.33;;
56794;SDS011;42678;59.400;18.410;2022-12-26T18:02:18;22.88;;;10.98;;
56794;SDS011;42678;59.400;18.410;2022-12-26T18:04:44;32.33;;;16.75;;
56794;SDS011;42678;59.400;18.410;2022-12-26T18:07:11;34.97;;;16.73;;
56794;SDS011;42678;59.400;18.410;2022-12-26T18:09:39;38.13;;;18.25;;
56794;SDS011;42678;59.400;18.410;2022-12-26T18:12:05;40.38;;;17.00;;
56794;SDS011;42678;59.400;18.410;2022-12-26T18:14:30;40.67;;;20.20;;
56794;SDS011;42678;59.400;18.410;2022-12-26T18:16:56;15.23;;;7.93;;
56794;SDS011;42678;59.400;18.410;2022-12-26T18:19:22;27.75;;;12.27;;
56794;SDS011;42678;59.400;18.410;2022-12-26T18:21:48;36.58;;;19.63;;
56794;SDS011;42678;59.400;18.410;2022-12-26T18:24:13;31.02;;;12.15;;
56794;SDS011;42678;59.400;18.410;2022-12-26T18:26:38;22.40;;;11.00;;